North Mountain, Pennsylvania
Current Conditions -  °F | °C
As of 6:54 AM on Sunday 25 Jan 2015 (Local Time) from KIPT Reporting Station
Overcast Overcast  
Wind Chill: 31°   Ceiling: 6500
Heat Index: 35°   Visibility: 10mi
Dew Point: 30°   Wind: 5mph
Humidity: 82%   Direction: 280°W
Pressure: 29.69"   Gusts: NA
Location:  41.3719°N, 76.499°W
Report Text: KIPT 251154Z 28004KT 10SM SCT034 SCT044 OVC065 02/M01 A2969 RMK AO2 UPB1057E00SNB00E23 SLP057 P0000 60000 70003 T00171011 10017 20006 53023
Loading
Personal Weather Stations






























Interactive Weather Map New forecast layout! Learn more

10-Day Weather Forecast

Advertisements
Track Severe Weather on mobile